MAPA DE AEROPUERTO

INFORMACIÓN METAR y TAF

METAR FOR LEMG
ADDS - METARS form results

(1126 UTC 27 November 2021)
Data provider http://aviationweather.gov/metar/data/
 
METAR text: LEMG 271100Z 31011KT 9999 FEW047 15/02 Q1011 NOSIG
Conditions at: LEMG (MALAGA (CIV/MIL), ES) observed 1100 UTC 27 November 2021
Temperature: 15.0°C (59°F)
Dewpoint: 2.0°C (36°F) [RH = 41%]
Pressure (altimeter): 29.85 inches Hg (1011.0 mb)
Winds: from the NW (310 degrees) at 13 MPH (11 knots; 5.7 m/s)
Visibility: 6 or more miles (10+ km)
Ceiling: at least 12,000 feet AGL
Clouds: few clouds at 4700 feet AGL
Weather: no significant weather observed at this time

METAR text: LEMG 271030Z 30011G22KT 9999 FEW045 15/02 Q1012 NOSIG
Conditions at: LEMG (MALAGA (CIV/MIL), ES) observed 1030 UTC 27 November 2021
Temperature: 15.0°C (59°F)
Dewpoint: 2.0°C (36°F) [RH = 41%]
Pressure (altimeter): 29.88 inches Hg (1012.0 mb)
Winds: from the WNW (300 degrees) at 13 MPH (11 knots; 5.7 m/s)
gusting to 25 MPH (22 knots; 11.3 m/s)
Visibility: 6 or more miles (10+ km)
Ceiling: at least 12,000 feet AGL
Clouds: few clouds at 4500 feet AGL
Weather: no significant weather observed at this time

Forecast for: LEMG (MALAGA (CIV/MIL), ES)
Text: TAF LEMG 271100Z 2712/2812 30012KT 9999 FEW040 TX18/2714Z TN06/2807Z
Forecast period: 1200 UTC 27 November 2021 to 1200 UTC 28 November 2021
Forecast type: FROM: standard forecast or significant change
Winds: from the WNW (300 degrees) at 14 MPH (12 knots; 6.2 m/s)
Visibility: 6 or more miles (10+ km)
Ceiling: at least 12,000 feet AGL
Clouds: few clouds at 4000 feet AGL
Weather: no significant weather forecast for this period
Text: PROB40
Forecast period: 1200 to 2200 UTC 27 November 2021
Forecast type: TEMPORARY: The following changes expected for less than half the time period
Winds: from the WNW (300 degrees) at 17 MPH (15 knots; 7.7 m/s)
gusting to 29 MPH (25 knots; 12.9 m/s)
Visibility: missing
Ceiling: unknown
Clouds: missing
Weather: no significant weather forecast for this period